sensor_id;sensor_type;location;lat;lon;timestamp;pressure;altitude;pressure_sealevel;temperature;humidity
65614;BME280;52283;49.292;10.572;2023-02-14T00:00:53;98310.03;;;0.67;100.00
65614;BME280;52283;49.292;10.572;2023-02-14T00:03:19;98313.16;;;0.55;100.00
65614;BME280;52283;49.292;10.572;2023-02-14T00:05:47;98318.63;;;0.26;100.00
65614;BME280;52283;49.292;10.572;2023-02-14T00:08:14;98312.34;;;0.26;100.00
65614;BME280;52283;49.292;10.572;2023-02-14T00:10:40;98310.72;;;0.07;100.00
65614;BME280;52283;49.292;10.572;2023-02-14T00:13:07;98311.97;;;0.31;100.00
65614;BME280;52283;49.292;10.572;2023-02-14T00:15:33;98309.25;;;0.45;100.00
65614;BME280;52283;49.292;10.572;2023-02-14T00:17:59;98319.84;;;0.54;100.00
65614;BME280;52283;49.292;10.572;2023-02-14T00:20:27;98323.28;;;0.05;100.00
65614;BME280;52283;49.292;10.572;2023-02-14T00:22:55;98316.63;;;0.20;100.00
65614;BME280;52283;49.292;10.572;2023-02-14T00:25:21;98320.16;;;0.10;100.00
65614;BME280;52283;49.292;10.572;2023-02-14T00:27:48;98323.75;;;0.24;100.00
65614;BME280;52283;49.292;10.572;2023-02-14T00:30:14;98326.50;;;0.32;100.00
65614;BME280;52283;49.292;10.572;2023-02-14T00:32:41;98321.38;;;0.30;100.00
65614;BME280;52283;49.292;10.572;2023-02-14T00:35:08;98323.78;;;0.42;100.00
65614;BME280;52283;49.292;10.572;2023-02-14T00:37:36;98323.78;;;0.46;100.00
65614;BME280;52283;49.292;10.572;2023-02-14T00:40:06;98321.38;;;0.34;100.00
65614;BME280;52283;49.292;10.572;2023-02-14T00:42:32;98337.50;;;0.32;100.00
65614;BME280;52283;49.292;10.572;2023-02-14T00:44:59;98330.06;;;0.43;100.00
65614;BME280;52283;49.292;10.572;2023-02-14T00:47:25;98319.03;;;0.21;100.00
65614;BME280;52283;49.292;10.572;2023-02-14T00:49:52;98318.25;;;0.39;100.00
65614;BME280;52283;49.292;10.572;2023-02-14T00:52:18;98324.13;;;0.37;100.00
65614;BME280;52283;49.292;10.572;2023-02-14T00:54:44;98313.88;;;0.06;100.00
65614;BME280;52283;49.292;10.572;2023-02-14T00:57:12;98318.59;;;0.02;100.00
65614;BME280;52283;49.292;10.572;2023-02-14T00:59:39;98318.97;;;0.00;100.00
65614;BME280;52283;49.292;10.572;2023-02-14T01:02:05;98315.06;;;0.05;100.00
65614;BME280;52283;49.292;10.572;2023-02-14T01:04:32;98317.41;;;0.17;100.00
65614;BME280;52283;49.292;10.572;2023-02-14T01:06:58;98317.47;;;0.24;100.00
65614;BME280;52283;49.292;10.572;2023-02-14T01:09:25;98315.41;;;-0.04;100.00
65614;BME280;52283;49.292;10.572;2023-02-14T01:11:51;98311.97;;;0.31;100.00
65614;BME280;52283;49.292;10.572;2023-02-14T01:14:19;98319.75;;;0.04;100.00
65614;BME280;52283;49.292;10.572;2023-02-14T01:16:45;98325.66;;;0.13;100.00
65614;BME280;52283;49.292;10.572;2023-02-14T01:19:12;98333.44;;;-0.10;100.00
65614;BME280;52283;49.292;10.572;2023-02-14T01:21:38;98324.53;;;0.25;100.00
65614;BME280;52283;49.292;10.572;2023-02-14T01:24:06;98322.94;;;0.24;100.00
65614;BME280;52283;49.292;10.572;2023-02-14T01:26:33;98319.78;;;0.18;100.00
65614;BME280;52283;49.292;10.572;2023-02-14T01:29:00;98334.63;;;-0.04;100.00
65614;BME280;52283;49.292;10.572;2023-02-14T01:31:30;98330.38;;;0.06;100.00
65614;BME280;52283;49.292;10.572;2023-02-14T01:33:57;98327.63;;;0.06;100.00
65614;BME280;52283;49.292;10.572;2023-02-14T01:36:26;98320.59;;;0.29;100.00
65614;BME280;52283;49.292;10.572;2023-02-14T01:38:54;98326.50;;;0.21;100.00
65614;BME280;52283;49.292;10.572;2023-02-14T01:41:22;98322.56;;;0.40;100.00
65614;BME280;52283;49.292;10.572;2023-02-14T01:43:55;98318.13;;;-0.15;100.00
65614;BME280;52283;49.292;10.572;2023-02-14T01:46:23;98323.28;;;0.01;100.00
65614;BME280;52283;49.292;10.572;2023-02-14T01:48:53;98323.34;;;0.26;100.00
65614;BME280;52283;49.292;10.572;2023-02-14T01:51:21;98327.22;;;0.11;100.00
65614;BME280;52283;49.292;10.572;2023-02-14T01:53:49;98326.50;;;0.35;100.00
65614;BME280;52283;49.292;10.572;2023-02-14T01:56:23;98322.97;;;0.31;100.00
65614;BME280;52283;49.292;10.572;2023-02-14T01:58:56;98325.72;;;0.38;100.00
65614;BME280;52283;49.292;10.572;2023-02-14T02:01:31;98327.66;;;0.27;100.00
65614;BME280;52283;49.292;10.572;2023-02-14T02:04:01;98330.38;;;0.09;100.00
65614;BME280;52283;49.292;10.572;2023-02-14T02:06:30;98324.53;;;0.25;100.00
65614;BME280;52283;49.292;10.572;2023-02-14T02:09:06;98321.38;;;0.41;100.00
65614;BME280;52283;49.292;10.572;2023-02-14T02:11:34;98319.75;;;0.08;100.00
65614;BME280;52283;49.292;10.572;2023-02-14T02:14:02;98324.53;;;0.32;100.00
65614;BME280;52283;49.292;10.572;2023-02-14T02:16:46;98316.66;;;0.34;100.00
65614;BME280;52283;49.292;10.572;2023-02-14T02:22:41;98314.31;;;0.29;100.00
65614;BME280;52283;49.292;10.572;2023-02-14T02:25:23;98319.84;;;0.50;100.00
65614;BME280;52283;49.292;10.572;2023-02-14T02:28:13;98320.56;;;0.19;100.00
65614;BME280;52283;49.292;10.572;2023-02-14T02:31:20;98324.94;;;0.34;100.00
65614;BME280;52283;49.292;10.572;2023-02-14T02:34:12;98323.75;;;0.21;100.00
65614;BME280;52283;49.292;10.572;2023-02-14T02:36:50;98310.00;;;0.21;100.00
65614;BME280;52283;49.292;10.572;2023-02-14T02:39:33;98307.66;;;0.55;100.00
65614;BME280;52283;49.292;10.572;2023-02-14T02:42:07;98308.44;;;0.59;100.00
65614;BME280;52283;49.292;10.572;2023-02-14T02:44:42;98310.41;;;0.51;100.00
65614;BME280;52283;49.292;10.572;2023-02-14T02:47:17;98315.13;;;0.44;100.00
65614;BME280;52283;49.292;10.572;2023-02-14T02:49:55;98306.47;;;0.38;100.00
65614;BME280;52283;49.292;10.572;2023-02-14T02:52:47;98306.50;;;0.42;100.00
65614;BME280;52283;49.292;10.572;2023-02-14T02:55:37;98304.13;;;0.51;100.00
65614;BME280;52283;49.292;10.572;2023-02-14T02:58:26;98300.19;;;0.52;100.00
65614;BME280;52283;49.292;10.572;2023-02-14T03:00:55;98302.53;;;0.60;100.00
65614;BME280;52283;49.292;10.572;2023-02-14T03:03:24;98308.44;;;0.52;100.00
65614;BME280;52283;49.292;10.572;2023-02-14T03:06:09;98304.94;;;0.66;100.00
65614;BME280;52283;49.292;10.572;2023-02-14T03:08:37;98301.00;;;0.74;100.00
65614;BME280;52283;49.292;10.572;2023-02-14T03:11:04;98302.56;;;0.43;100.00
65614;BME280;52283;49.292;10.572;2023-02-14T03:14:00;98301.78;;;0.42;100.00
65614;BME280;52283;49.292;10.572;2023-02-14T03:16:35;98303.34;;;0.75;100.00
65614;BME280;52283;49.292;10.572;2023-02-14T03:19:26;98309.66;;;0.69;100.00
65614;BME280;52283;49.292;10.572;2023-02-14T03:22:18;98305.63;;;0.20;100.00
65614;BME280;52283;49.292;10.572;2023-02-14T03:24:53;98299.00;;;0.28;100.00
65614;BME280;52283;49.292;10.572;2023-02-14T03:27:25;98299.31;;;-0.02;100.00
65614;BME280;52283;49.292;10.572;2023-02-14T03:29:54;98301.38;;;0.44;100.00
65614;BME280;52283;49.292;10.572;2023-02-14T03:32:28;98306.09;;;0.54;100.00
65614;BME280;52283;49.292;10.572;2023-02-14T03:34:59;98305.28;;;0.39;100.00
65614;BME280;52283;49.292;10.572;2023-02-14T03:37:30;98310.41;;;0.55;100.00
65614;BME280;52283;49.292;10.572;2023-02-14T03:40:04;98306.84;;;0.33;100.00
65614;BME280;52283;49.292;10.572;2023-02-14T03:42:35;98310.41;;;0.51;100.00
65614;BME280;52283;49.292;10.572;2023-02-14T03:45:05;98301.75;;;0.35;100.00
65614;BME280;52283;49.292;10.572;2023-02-14T03:47:34;98303.72;;;0.35;100.00
65614;BME280;52283;49.292;10.572;2023-02-14T03:50:04;98303.28;;;0.18;100.00
65614;BME280;52283;49.292;10.572;2023-02-14T03:52:33;98304.50;;;0.24;100.00
65614;BME280;52283;49.292;10.572;2023-02-14T03:55:04;98307.19;;;0.03;100.00
65614;BME280;52283;49.292;10.572;2023-02-14T03:57:37;98307.63;;;0.23;100.00
65614;BME280;52283;49.292;10.572;2023-02-14T04:00:07;98306.47;;;0.35;100.00
65614;BME280;52283;49.292;10.572;2023-02-14T04:02:36;98302.88;;;0.16;100.00
65614;BME280;52283;49.292;10.572;2023-02-14T04:05:08;98307.63;;;0.26;100.00
65614;BME280;52283;49.292;10.572;2023-02-14T04:07:43;98308.78;;;0.15;100.00
65614;BME280;52283;49.292;10.572;2023-02-14T04:10:11;98302.09;;;0.09;100.00
65614;BME280;52283;49.292;10.572;2023-02-14T04:12:38;98295.75;;;-0.17;100.00
65614;BME280;52283;49.292;10.572;2023-02-14T04:15:05;98298.22;;;0.27;100.00
65614;BME280;52283;49.292;10.572;2023-02-14T04:17:32;98300.16;;;0.30;100.00
65614;BME280;52283;49.292;10.572;2023-02-14T04:20:16;98296.19;;;0.07;100.00
65614;BME280;52283;49.292;10.572;2023-02-14T04:22:43;98298.94;;;0.10;100.00
65614;BME280;52283;49.292;10.572;2023-02-14T04:25:11;98297.81;;;0.22;100.00
65614;BME280;52283;49.292;10.572;2023-02-14T04:27:38;98295.84;;;0.26;100.00
65614;BME280;52283;49.292;10.572;2023-02-14T04:30:05;98292.72;;;0.35;100.00
65614;BME280;52283;49.292;10.572;2023-02-14T04:32:32;98294.66;;;0.41;100.00
65614;BME280;52283;49.292;10.572;2023-02-14T04:34:58;98295.47;;;0.35;100.00
65614;BME280;52283;49.292;10.572;2023-02-14T04:37:25;98286.03;;;0.25;100.00
65614;BME280;52283;49.292;10.572;2023-02-14T04:39:51;98293.50;;;0.35;100.00
65614;BME280;52283;49.292;10.572;2023-02-14T04:42:19;98290.75;;;0.35;100.00
65614;BME280;52283;49.292;10.572;2023-02-14T04:44:45;98291.53;;;0.28;100.00
65614;BME280;52283;49.292;10.572;2023-02-14T04:47:12;98285.25;;;0.24;100.00
65614;BME280;52283;49.292;10.572;2023-02-14T04:49:38;98289.53;;;0.18;100.00
65614;BME280;52283;49.292;10.572;2023-02-14T04:52:05;98285.22;;;0.17;100.00
65614;BME280;52283;49.292;10.572;2023-02-14T04:54:32;98286.72;;;-0.17;100.00
65614;BME280;52283;49.292;10.572;2023-02-14T04:56:59;98285.53;;;-0.16;100.00
65614;BME280;52283;49.292;10.572;2023-02-14T04:59:27;98289.81;;;-0.22;100.00
65614;BME280;52283;49.292;10.572;2023-02-14T05:01:53;98291.38;;;-0.28;100.00
65614;BME280;52283;49.292;10.572;2023-02-14T05:04:20;98287.97;;;0.10;100.00
65614;BME280;52283;49.292;10.572;2023-02-14T05:06:46;98284.78;;;-0.06;100.00
65614;BME280;52283;49.292;10.572;2023-02-14T05:09:13;98281.63;;;-0.12;100.00
65614;BME280;52283;49.292;10.572;2023-02-14T05:11:39;98280.06;;;-0.06;100.00
65614;BME280;52283;49.292;10.572;2023-02-14T05:14:06;98279.66;;;-0.18;100.00
65614;BME280;52283;49.292;10.572;2023-02-14T05:16:33;98278.03;;;-0.26;100.00
65614;BME280;52283;49.292;10.572;2023-02-14T05:19:00;98277.22;;;-0.41;100.00
65614;BME280;52283;49.292;10.572;2023-02-14T05:21:26;98282.81;;;-0.06;100.00
65614;BME280;52283;49.292;10.572;2023-02-14T05:23:57;98274.03;;;-0.47;100.00
65614;BME280;52283;49.292;10.572;2023-02-14T05:26:23;98272.44;;;-0.58;100.00
65614;BME280;52283;49.292;10.572;2023-02-14T05:28:50;98262.34;;;-0.26;100.00
65614;BME280;52283;49.292;10.572;2023-02-14T05:31:16;98261.38;;;-0.69;100.00
65614;BME280;52283;49.292;10.572;2023-02-14T05:33:44;98259.63;;;-0.12;100.00
65614;BME280;52283;49.292;10.572;2023-02-14T05:36:11;98262.31;;;-0.40;100.00
65614;BME280;52283;49.292;10.572;2023-02-14T05:38:37;98258.34;;;-0.43;100.00
65614;BME280;52283;49.292;10.572;2023-02-14T05:41:04;98261.53;;;-0.30;100.00
65614;BME280;52283;49.292;10.572;2023-02-14T05:43:31;98263.06;;;-0.43;100.00
65614;BME280;52283;49.292;10.572;2023-02-14T05:45:57;98256.09;;;-0.19;100.00
65614;BME280;52283;49.292;10.572;2023-02-14T05:48:24;98256.84;;;-0.26;100.00
65614;BME280;52283;49.292;10.572;2023-02-14T05:50:52;98253.34;;;-0.12;100.00
65614;BME280;52283;49.292;10.572;2023-02-14T05:53:19;98257.69;;;-0.11;100.00
65614;BME280;52283;49.292;10.572;2023-02-14T05:55:45;98262.44;;;0.06;100.00
65614;BME280;52283;49.292;10.572;2023-02-14T05:58:12;98262.44;;;0.06;100.00
65614;BME280;52283;49.292;10.572;2023-02-14T06:00:39;98260.47;;;0.14;100.00
65614;BME280;52283;49.292;10.572;2023-02-14T06:03:05;98266.34;;;0.19;100.00
65614;BME280;52283;49.292;10.572;2023-02-14T06:05:32;98263.50;;;-0.31;100.00
65614;BME280;52283;49.292;10.572;2023-02-14T06:08:00;98269.75;;;-0.41;100.00
65614;BME280;52283;49.292;10.572;2023-02-14T06:10:26;98267.50;;;-0.10;100.00
65614;BME280;52283;49.292;10.572;2023-02-14T06:12:53;98269.44;;;-0.18;100.00
65614;BME280;52283;49.292;10.572;2023-02-14T06:15:20;98271.34;;;-0.40;100.00
65614;BME280;52283;49.292;10.572;2023-02-14T06:17:50;98268.69;;;-0.01;100.00
65614;BME280;52283;49.292;10.572;2023-02-14T06:20:17;98265.41;;;-0.45;100.00
65614;BME280;52283;49.292;10.572;2023-02-14T06:22:44;98257.63;;;-0.22;100.00
65614;BME280;52283;49.292;10.572;2023-02-14T06:25:11;98264.22;;;-0.48;100.00
65614;BME280;52283;49.292;10.572;2023-02-14T06:27:38;98259.50;;;-0.51;100.00
65614;BME280;52283;49.292;10.572;2023-02-14T06:30:05;98266.56;;;-0.50;100.00
65614;BME280;52283;49.292;10.572;2023-02-14T06:32:32;98264.97;;;-0.58;100.00
65614;BME280;52283;49.292;10.572;2023-02-14T06:34:59;98267.53;;;-0.90;100.00
65614;BME280;52283;49.292;10.572;2023-02-14T06:37:25;98269.72;;;-0.51;100.00
65614;BME280;52283;49.292;10.572;2023-02-14T06:39:51;98273.53;;;-0.74;100.00
65614;BME280;52283;49.292;10.572;2023-02-14T06:42:19;98271.72;;;-0.38;100.00
65614;BME280;52283;49.292;10.572;2023-02-14T06:44:46;98275.50;;;-0.67;100.00
65614;BME280;52283;49.292;10.572;2023-02-14T06:47:12;98277.13;;;-0.59;100.00
65614;BME280;52283;49.292;10.572;2023-02-14T06:49:39;98280.56;;;-0.80;100.00
65614;BME280;52283;49.292;10.572;2023-02-14T06:52:05;98286.59;;;-0.46;100.00
65614;BME280;52283;49.292;10.572;2023-02-14T06:54:32;98284.94;;;-0.65;100.00
65614;BME280;52283;49.292;10.572;2023-02-14T06:56:59;98285.38;;;-0.55;100.00
65614;BME280;52283;49.292;10.572;2023-02-14T06:59:26;98288.94;;;-0.48;100.00
65614;BME280;52283;49.292;10.572;2023-02-14T07:01:53;98288.25;;;-0.23;100.00
65614;BME280;52283;49.292;10.572;2023-02-14T07:04:19;98287.34;;;-0.59;100.00
65614;BME280;52283;49.292;10.572;2023-02-14T07:06:46;98295.69;;;-0.27;100.00
65614;BME280;52283;49.292;10.572;2023-02-14T07:09:12;98293.69;;;-0.41;100.00
65614;BME280;52283;49.292;10.572;2023-02-14T07:11:42;98290.56;;;-0.36;100.00
65614;BME280;52283;49.292;10.572;2023-02-14T07:14:09;98289.38;;;-0.39;100.00
65614;BME280;52283;49.292;10.572;2023-02-14T07:16:37;98290.13;;;-0.42;100.00
65614;BME280;52283;49.292;10.572;2023-02-14T07:19:03;98284.50;;;-0.77;100.00
65614;BME280;52283;49.292;10.572;2023-02-14T07:21:30;98281.88;;;-0.45;100.00
65614;BME280;52283;49.292;10.572;2023-02-14T07:23:56;98279.25;;;-0.20;100.00
65614;BME280;52283;49.292;10.572;2023-02-14T07:26:23;98286.72;;;-0.10;100.00
65614;BME280;52283;49.292;10.572;2023-02-14T07:28:49;98286.00;;;0.04;100.00
65614;BME280;52283;49.292;10.572;2023-02-14T07:31:16;98281.09;;;-0.46;100.00
65614;BME280;52283;49.292;10.572;2023-02-14T07:33:45;98278.03;;;-0.34;100.00
65614;BME280;52283;49.292;10.572;2023-02-14T07:36:11;98284.38;;;-0.05;100.00
65614;BME280;52283;49.292;10.572;2023-02-14T07:38:38;98294.91;;;-0.21;100.00
65614;BME280;52283;49.292;10.572;2023-02-14T07:41:04;98285.97;;;0.00;100.00
65614;BME280;52283;49.292;10.572;2023-02-14T07:43:31;98278.00;;;-0.41;100.00
65614;BME280;52283;49.292;10.572;2023-02-14T07:45:58;98285.47;;;-0.31;100.00
65614;BME280;52283;49.292;10.572;2023-02-14T07:48:25;98277.63;;;-0.36;100.00
65614;BME280;52283;49.292;10.572;2023-02-14T07:50:53;98278.03;;;-0.30;100.00
65614;BME280;52283;49.292;10.572;2023-02-14T07:53:20;98289.34;;;-0.46;100.00
65614;BME280;52283;49.292;10.572;2023-02-14T07:55:48;98286.16;;;-0.58;100.00
65614;BME280;52283;49.292;10.572;2023-02-14T07:58:14;98283.41;;;-0.62;100.00
65614;BME280;52283;49.292;10.572;2023-02-14T08:00:40;98284.53;;;-0.70;100.00
65614;BME280;52283;49.292;10.572;2023-02-14T08:03:07;98278.09;;;-0.09;100.00
65614;BME280;52283;49.292;10.572;2023-02-14T08:05:34;98275.72;;;-0.14;100.00
65614;BME280;52283;49.292;10.572;2023-02-14T08:08:02;98284.38;;;-0.08;100.00
65614;BME280;52283;49.292;10.572;2023-02-14T08:10:29;98274.56;;;-0.16;100.00
65614;BME280;52283;49.292;10.572;2023-02-14T08:12:55;98283.25;;;0.14;100.00
65614;BME280;52283;49.292;10.572;2023-02-14T08:15:23;98287.53;;;-0.03;100.00
65614;BME280;52283;49.292;10.572;2023-02-14T08:18:07;98288.31;;;-0.02;100.00
65614;BME280;52283;49.292;10.572;2023-02-14T08:20:34;98275.75;;;-0.10;100.00
65614;BME280;52283;49.292;10.572;2023-02-14T08:23:02;98284.22;;;-0.47;100.00
65614;BME280;52283;49.292;10.572;2023-02-14T08:25:29;98277.06;;;-0.70;100.00
65614;BME280;52283;49.292;10.572;2023-02-14T08:27:55;98273.25;;;-0.51;100.00
65614;BME280;52283;49.292;10.572;2023-02-14T08:30:22;98274.56;;;-0.09;100.00
65614;BME280;52283;49.292;10.572;2023-02-14T08:32:49;98274.88;;;-0.28;100.00
65614;BME280;52283;49.292;10.572;2023-02-14T08:35:15;98274.94;;;-0.18;100.00
65614;BME280;52283;49.292;10.572;2023-02-14T08:37:42;98283.09;;;-0.39;100.00
65614;BME280;52283;49.292;10.572;2023-02-14T08:40:10;98273.69;;;-0.35;100.00
65614;BME280;52283;49.292;10.572;2023-02-14T08:42:37;98274.78;;;-0.57;100.00
65614;BME280;52283;49.292;10.572;2023-02-14T08:45:03;98275.19;;;-0.58;100.00
65614;BME280;52283;49.292;10.572;2023-02-14T08:47:30;98272.94;;;-0.21;100.00
65614;BME280;52283;49.292;10.572;2023-02-14T08:49:59;98277.22;;;-0.38;100.00
65614;BME280;52283;49.292;10.572;2023-02-14T08:52:26;98276.41;;;-0.42;100.00
65614;BME280;52283;49.292;10.572;2023-02-14T08:54:52;98264.63;;;-0.42;100.00
65614;BME280;52283;49.292;10.572;2023-02-14T08:57:20;98272.53;;;-0.37;100.00
65614;BME280;52283;49.292;10.572;2023-02-14T08:59:47;98269.78;;;-0.30;100.00
65614;BME280;52283;49.292;10.572;2023-02-14T09:02:14;98266.31;;;-0.20;100.00
65614;BME280;52283;49.292;10.572;2023-02-14T09:04:41;98274.16;;;-0.08;100.00
65614;BME280;52283;49.292;10.572;2023-02-14T09:07:07;98268.28;;;-0.03;100.00
65614;BME280;52283;49.292;10.572;2023-02-14T09:09:34;98272.25;;;0.04;100.00
65614;BME280;52283;49.292;10.572;2023-02-14T09:12:02;98275.78;;;0.08;100.00
65614;BME280;52283;49.292;10.572;2023-02-14T09:14:33;98285.50;;;-0.27;100.00
65614;BME280;52283;49.292;10.572;2023-02-14T09:17:00;98271.78;;;-0.20;100.00
65614;BME280;52283;49.292;10.572;2023-02-14T09:19:29;98272.16;;;-0.25;100.00
65614;BME280;52283;49.292;10.572;2023-02-14T09:21:56;98273.84;;;0.29;100.00
65614;BME280;52283;49.292;10.572;2023-02-14T09:24:22;98262.09;;;0.50;100.00
65614;BME280;52283;49.292;10.572;2023-02-14T09:26:49;98273.88;;;0.47;100.00
65614;BME280;52283;49.292;10.572;2023-02-14T09:29:15;98265.19;;;0.03;100.00
65614;BME280;52283;49.292;10.572;2023-02-14T09:31:43;98269.00;;;-0.31;100.00
65614;BME280;52283;49.292;10.572;2023-02-14T09:34:09;98261.25;;;0.14;100.00
65614;BME280;52283;49.292;10.572;2023-02-14T09:36:54;98263.59;;;0.05;100.00
65614;BME280;52283;49.292;10.572;2023-02-14T09:39:38;98265.13;;;-0.15;100.00
65614;BME280;52283;49.292;10.572;2023-02-14T09:42:44;98261.59;;;-0.09;100.00
65614;BME280;52283;49.292;10.572;2023-02-14T09:45:13;98260.44;;;-0.01;100.00
65614;BME280;52283;49.292;10.572;2023-02-14T09:47:45;98257.75;;;0.28;100.00
65614;BME280;52283;49.292;10.572;2023-02-14T09:50:18;98260.50;;;0.21;100.00
65614;BME280;52283;49.292;10.572;2023-02-14T09:52:48;98260.50;;;0.67;100.00
65614;BME280;52283;49.292;10.572;2023-02-14T09:55:17;98265.59;;;0.26;100.00
65614;BME280;52283;49.292;10.572;2023-02-14T09:57:53;98266.78;;;0.78;100.00
65614;BME280;52283;49.292;10.572;2023-02-14T10:00:29;98261.28;;;0.78;100.00
65614;BME280;52283;49.292;10.572;2023-02-14T10:05:48;98269.50;;;0.96;100.00
65614;BME280;52283;49.292;10.572;2023-02-14T10:08:30;98271.84;;;1.26;100.00
65614;BME280;52283;49.292;10.572;2023-02-14T10:11:05;98269.47;;;1.28;100.00
65614;BME280;52283;49.292;10.572;2023-02-14T10:13:37;98267.94;;;0.81;100.00
65614;BME280;52283;49.292;10.572;2023-02-14T10:16:12;98269.88;;;1.02;100.00
65614;BME280;52283;49.292;10.572;2023-02-14T10:18:45;98258.91;;;0.41;100.00
65614;BME280;52283;49.292;10.572;2023-02-14T10:21:19;98263.25;;;0.42;100.00
65614;BME280;52283;49.292;10.572;2023-02-14T10:23:50;98258.94;;;0.48;100.00
65614;BME280;52283;49.292;10.572;2023-02-14T10:26:24;98254.97;;;0.88;100.00
65614;BME280;52283;49.292;10.572;2023-02-14T10:28:54;98270.66;;;1.13;100.00
65614;BME280;52283;49.292;10.572;2023-02-14T10:31:22;98262.84;;;0.83;100.00
65614;BME280;52283;49.292;10.572;2023-02-14T10:33:53;98257.66;;;1.28;100.00
65614;BME280;52283;49.292;10.572;2023-02-14T10:36:37;98259.63;;;1.31;100.00
65614;BME280;52283;49.292;10.572;2023-02-14T10:39:15;98266.72;;;1.28;100.00
65614;BME280;52283;49.292;10.572;2023-02-14T10:41:51;98265.78;;;1.60;100.00
65614;BME280;52283;49.292;10.572;2023-02-14T10:44:29;98274.97;;;1.28;100.00
65614;BME280;52283;49.292;10.572;2023-02-14T10:47:04;98268.72;;;1.10;100.00
65614;BME280;52283;49.292;10.572;2023-02-14T10:49:42;98263.88;;;1.42;100.00
65614;BME280;52283;49.292;10.572;2023-02-14T10:52:17;98264.03;;;0.75;100.00
65614;BME280;52283;49.292;10.572;2023-02-14T10:54:51;98263.63;;;0.87;100.00
65614;BME280;52283;49.292;10.572;2023-02-14T10:57:21;98256.47;;;1.29;100.00
65614;BME280;52283;49.292;10.572;2023-02-14T10:59:53;98260.47;;;0.92;100.00
65614;BME280;52283;49.292;10.572;2023-02-14T11:02:23;98256.47;;;1.21;100.00
65614;BME280;52283;49.292;10.572;2023-02-14T11:04:52;98256.16;;;0.95;100.00
65614;BME280;52283;49.292;10.572;2023-02-14T11:07:20;98244.69;;;1.14;100.00
65614;BME280;52283;49.292;10.572;2023-02-14T11:09:47;98236.44;;;1.14;100.00
65614;BME280;52283;49.292;10.572;2023-02-14T11:12:32;98241.03;;;1.52;100.00
65614;BME280;52283;49.292;10.572;2023-02-14T11:15:14;98233.75;;;1.91;100.00
65614;BME280;52283;49.292;10.572;2023-02-14T11:17:44;98232.72;;;1.63;100.00
65614;BME280;52283;49.292;10.572;2023-02-14T11:20:24;98231.28;;;1.34;100.00
65614;BME280;52283;49.292;10.572;2023-02-14T11:22:52;98227.81;;;1.08;100.00
65614;BME280;52283;49.292;10.572;2023-02-14T11:25:20;98227.97;;;1.64;100.00
65614;BME280;52283;49.292;10.572;2023-02-14T11:27:49;98222.84;;;1.69;100.00
65614;BME280;52283;49.292;10.572;2023-02-14T11:30:19;98215.13;;;2.12;100.00
65614;BME280;52283;49.292;10.572;2023-02-14T11:32:49;98218.81;;;1.88;100.00
65614;BME280;52283;49.292;10.572;2023-02-14T11:35:21;98209.06;;;1.66;100.00
65614;BME280;52283;49.292;10.572;2023-02-14T11:37:53;98204.97;;;1.15;100.00
65614;BME280;52283;49.292;10.572;2023-02-14T11:40:25;98203.81;;;1.93;100.00
65614;BME280;52283;49.292;10.572;2023-02-14T11:42:53;98200.13;;;2.13;100.00
65614;BME280;52283;49.292;10.572;2023-02-14T11:45:31;98200.56;;;2.08;100.00
65614;BME280;52283;49.292;10.572;2023-02-14T11:48:16;98195.44;;;2.07;100.00
65614;BME280;52283;49.292;10.572;2023-02-14T11:50:53;98188.09;;;1.90;100.00
65614;BME280;52283;49.292;10.572;2023-02-14T11:53:23;98197.47;;;1.99;100.00
65614;BME280;52283;49.292;10.572;2023-02-14T11:55:52;98189.41;;;1.64;100.00
65614;BME280;52283;49.292;10.572;2023-02-14T11:58:29;98185.19;;;2.07;100.00
65614;BME280;52283;49.292;10.572;2023-02-14T12:00:56;98183.38;;;2.38;100.00
65614;BME280;52283;49.292;10.572;2023-02-14T12:03:25;98189.97;;;2.48;100.00
65614;BME280;52283;49.292;10.572;2023-02-14T12:05:55;98185.25;;;2.49;100.00
65614;BME280;52283;49.292;10.572;2023-02-14T12:08:26;98186.84;;;2.46;100.00
65614;BME280;52283;49.292;10.572;2023-02-14T12:11:02;98178.94;;;2.00;100.00
65614;BME280;52283;49.292;10.572;2023-02-14T12:13:29;98167.34;;;2.23;100.00
65614;BME280;52283;49.292;10.572;2023-02-14T12:15:57;98183.00;;;1.81;100.00
65614;BME280;52283;49.292;10.572;2023-02-14T12:18:39;98174.50;;;2.17;100.00
65614;BME280;52283;49.292;10.572;2023-02-14T12:21:33;98175.13;;;1.83;100.00
65614;BME280;52283;49.292;10.572;2023-02-14T12:24:10;98167.44;;;2.57;100.00
65614;BME280;52283;49.292;10.572;2023-02-14T12:26:42;98158.66;;;2.24;100.00
65614;BME280;52283;49.292;10.572;2023-02-14T12:29:15;98159.06;;;2.23;100.00
65614;BME280;52283;49.292;10.572;2023-02-14T12:31:47;98154.81;;;2.14;100.00
65614;BME280;52283;49.292;10.572;2023-02-14T12:34:16;98149.41;;;2.00;100.00
65614;BME280;52283;49.292;10.572;2023-02-14T12:37:06;98156.50;;;1.98;100.00
65614;BME280;52283;49.292;10.572;2023-02-14T12:39:36;98148.00;;;2.30;100.00
65614;BME280;52283;49.292;10.572;2023-02-14T12:42:20;98141.59;;;1.92;100.00
65614;BME280;52283;49.292;10.572;2023-02-14T12:45:03;98141.66;;;2.33;100.00
65614;BME280;52283;49.292;10.572;2023-02-14T12:47:35;98136.78;;;2.48;100.00
65614;BME280;52283;49.292;10.572;2023-02-14T12:50:20;98143.06;;;2.03;100.00
65614;BME280;52283;49.292;10.572;2023-02-14T12:53:04;98138.94;;;2.26;100.00
65614;BME280;52283;49.292;10.572;2023-02-14T12:55:44;98128.19;;;2.38;100.00
65614;BME280;52283;49.292;10.572;2023-02-14T12:58:25;98128.97;;;2.39;100.00
65614;BME280;52283;49.292;10.572;2023-02-14T13:01:04;98136.56;;;2.69;100.00
65614;BME280;52283;49.292;10.572;2023-02-14T13:03:46;98131.44;;;2.30;100.00
65614;BME280;52283;49.292;10.572;2023-02-14T13:06:20;98124.72;;;2.31;100.00
65614;BME280;52283;49.292;10.572;2023-02-14T13:09:08;98118.25;;;2.48;100.00